Time;durP1;ratioP1;P1;durP2;ratioP2;P2;SDS_P1;SDS_P2;PMS_P1;PMS_P2;Temp;Humidity;BMP_temperature;BMP_pressure;BME280_temperature;BME280_humidity;BME280_pressure;Samples;Min_cycle;Max_cycle;Signal;HPM_P1;HPM_P2
2023/04/03 00:01:10;;;;;;;1.52;0.40;;;4.00;99.90;;;;;;5074039;28;20104;-41
2023/04/03 00:03:36;;;;;;;0.60;0.28;;;4.00;99.90;;;;;;5058258;28;20672;-41
2023/04/03 00:06:03;;;;;;;1.25;0.20;;;3.90;99.90;;;;;;5073607;28;20443;-42
2023/04/03 00:08:30;;;;;;;0.77;0.25;;;3.90;99.90;;;;;;5078486;28;20052;-43
2023/04/03 00:10:57;;;;;;;1.65;0.45;;;3.90;99.90;;;;;;5079401;28;20058;-43
2023/04/03 00:13:23;;;;;;;1.65;0.40;;;3.90;99.90;;;;;;5075776;28;20091;-43
2023/04/03 00:15:49;;;;;;;3.30;0.60;;;3.90;99.90;;;;;;5073721;28;20070;-46
2023/04/03 00:18:15;;;;;;;1.33;0.50;;;3.80;99.90;;;;;;5074271;28;20052;-41
2023/04/03 00:20:41;;;;;;;0.75;0.30;;;3.80;99.90;;;;;;5079071;28;20553;-41
2023/04/03 00:23:07;;;;;;;0.60;0.20;;;3.80;99.90;;;;;;5077174;28;20047;-41
2023/04/03 00:25:33;;;;;;;5.38;0.50;;;3.80;99.90;;;;;;5076708;28;20049;-38
2023/04/03 00:28:00;;;;;;;1.60;0.55;;;3.70;99.90;;;;;;5075370;28;20050;-38
2023/04/03 00:30:26;;;;;;;0.55;0.25;;;3.70;99.90;;;;;;5059733;28;20057;-38
2023/04/03 00:32:52;;;;;;;0.80;0.40;;;3.70;99.90;;;;;;5074530;28;20102;-36
2023/04/03 00:35:20;;;;;;;0.75;0.30;;;3.70;99.90;;;;;;5076290;28;20048;-36
2023/04/03 00:37:45;;;;;;;2.50;0.30;;;3.60;99.90;;;;;;5080428;28;20134;-37
2023/04/03 00:40:13;;;;;;;3.97;0.35;;;3.60;99.90;;;;;;5071843;28;20409;-36
2023/04/03 00:42:41;;;;;;;1.00;0.35;;;3.60;99.90;;;;;;5075005;28;20063;-36
2023/04/03 00:45:41;;;;;;;2.10;0.32;;;3.60;99.90;;;;;;5058376;28;20070;-37
2023/04/03 00:48:10;;;;;;;1.17;0.45;;;3.60;99.90;;;;;;5065738;28;20056;-44
2023/04/03 00:50:40;;;;;;;1.63;0.25;;;3.50;99.90;;;;;;5078524;28;20044;-36
2023/04/03 00:53:07;;;;;;;1.17;0.35;;;3.50;99.90;;;;;;5074761;28;20164;-36
2023/04/03 00:55:35;;;;;;;1.77;0.45;;;3.40;99.90;;;;;;5070986;28;20143;-36
2023/04/03 00:58:02;;;;;;;1.88;0.40;;;3.40;99.90;;;;;;5074748;28;20056;-37
2023/04/03 01:00:28;;;;;;;0.95;0.40;;;3.40;99.90;;;;;;5045884;28;20044;-37
2023/04/03 01:02:54;;;;;;;1.80;0.32;;;3.40;99.90;;;;;;5055100;28;20105;-36
2023/04/03 01:05:21;;;;;;;1.42;0.25;;;3.30;99.90;;;;;;5053869;28;21466;-36
2023/04/03 01:07:48;;;;;;;1.40;0.38;;;3.30;99.90;;;;;;5055817;28;20053;-36
2023/04/03 01:10:16;;;;;;;3.10;0.40;;;3.30;99.90;;;;;;5030459;28;20619;-36
2023/04/03 01:12:45;;;;;;;1.30;0.30;;;3.30;99.90;;;;;;5058974;28;20049;-37
2023/04/03 01:15:13;;;;;;;2.33;0.30;;;3.20;99.90;;;;;;5052554;28;21079;-37
2023/04/03 01:17:48;;;;;;;2.38;0.50;;;3.20;99.90;;;;;;5054837;28;20052;-37
2023/04/03 01:20:35;;;;;;;1.40;0.30;;;3.20;99.90;;;;;;5050800;28;20059;-37
2023/04/03 01:23:12;;;;;;;1.67;0.50;;;3.10;99.90;;;;;;5037430;28;20490;-37
2023/04/03 01:25:44;;;;;;;2.17;0.30;;;3.10;99.90;;;;;;5058039;28;20395;-36
2023/04/03 01:28:15;;;;;;;1.17;0.27;;;3.10;99.90;;;;;;5051397;28;20419;-36
2023/04/03 01:31:15;;;;;;;1.65;0.40;;;3.10;99.90;;;;;;5057554;28;20048;-37
2023/04/03 01:33:41;;;;;;;1.35;0.40;;;3.10;99.90;;;;;;5050145;28;20207;-36
2023/04/03 01:36:09;;;;;;;2.00;0.80;;;3.00;99.90;;;;;;5058166;28;20087;-37
2023/04/03 01:38:35;;;;;;;2.90;0.40;;;3.00;99.90;;;;;;5058352;28;20444;-36
2023/04/03 01:41:01;;;;;;;2.67;0.40;;;3.00;99.90;;;;;;5056785;28;20063;-37
2023/04/03 01:43:27;;;;;;;1.30;0.30;;;3.00;99.90;;;;;;5055749;28;20131;-37
2023/04/03 01:45:54;;;;;;;3.10;0.50;;;3.00;99.90;;;;;;5057557;28;20057;-36
2023/04/03 01:48:20;;;;;;;2.28;0.30;;;2.90;99.90;;;;;;5056098;28;20063;-35
2023/04/03 01:50:46;;;;;;;3.28;0.40;;;2.90;99.90;;;;;;5054311;28;20495;-35
2023/04/03 01:53:12;;;;;;;1.90;0.40;;;2.90;99.90;;;;;;5055911;28;20052;-35
2023/04/03 01:55:38;;;;;;;1.65;0.30;;;2.90;99.90;;;;;;5054122;28;20045;-36
2023/04/03 01:58:03;;;;;;;3.50;0.45;;;2.80;99.90;;;;;;5056254;28;20048;-42
2023/04/03 02:00:29;;;;;;;1.23;0.63;;;2.80;99.90;;;;;;5053802;28;20662;-40
2023/04/03 02:02:55;;;;;;;2.28;0.30;;;2.80;99.90;;;;;;5060723;28;20060;-37
2023/04/03 02:05:21;;;;;;;2.13;0.50;;;2.80;99.90;;;;;;5057940;28;20060;-38
2023/04/03 02:07:46;;;;;;;1.17;0.30;;;2.70;99.90;;;;;;5055033;28;20055;-37
2023/04/03 02:10:12;;;;;;;1.67;0.40;;;2.70;99.90;;;;;;5057623;28;21951;-38
2023/04/03 02:12:37;;;;;;;1.55;0.40;;;2.80;99.90;;;;;;5059798;28;20524;-43
2023/04/03 02:15:04;;;;;;;2.25;0.68;;;2.60;99.90;;;;;;5058092;28;20056;-43
2023/04/03 02:17:30;;;;;;;2.95;0.60;;;2.60;99.90;;;;;;5056954;28;20068;-42
2023/04/03 02:19:55;;;;;;;1.27;0.40;;;2.60;99.90;;;;;;5054991;28;20147;-43
2023/04/03 02:22:21;;;;;;;1.20;0.30;;;2.50;99.90;;;;;;5057514;28;20075;-41
2023/04/03 02:24:47;;;;;;;1.40;0.38;;;2.50;99.90;;;;;;5061273;28;20048;-43
2023/04/03 02:27:12;;;;;;;2.75;0.60;;;2.50;99.90;;;;;;5055154;28;20053;-43
2023/04/03 02:29:38;;;;;;;2.45;0.50;;;2.50;99.90;;;;;;5057390;28;20052;-42
2023/04/03 02:32:04;;;;;;;2.70;0.47;;;2.50;99.90;;;;;;5057630;28;20107;-44
2023/04/03 02:34:30;;;;;;;1.48;0.30;;;2.40;99.90;;;;;;5058006;28;20048;-44
2023/04/03 02:36:55;;;;;;;1.05;0.30;;;2.40;99.90;;;;;;5064352;28;20067;-43
2023/04/03 02:39:21;;;;;;;3.33;0.50;;;2.40;99.90;;;;;;5059559;28;20079;-43
2023/04/03 02:41:47;;;;;;;3.45;0.40;;;2.30;99.90;;;;;;5063205;28;20060;-44
2023/04/03 02:44:13;;;;;;;1.73;0.45;;;2.30;99.90;;;;;;5060872;28;20045;-45
2023/04/03 02:46:38;;;;;;;2.00;0.40;;;2.30;99.90;;;;;;5061451;28;20059;-45
2023/04/03 02:49:04;;;;;;;1.33;0.40;;;2.20;99.90;;;;;;5060283;28;20045;-44
2023/04/03 02:51:30;;;;;;;3.47;0.50;;;2.20;99.90;;;;;;5056305;28;20049;-42
2023/04/03 02:53:56;;;;;;;3.22;0.50;;;2.20;99.90;;;;;;5063544;28;20422;-44
2023/04/03 02:56:21;;;;;;;1.63;0.55;;;2.20;99.90;;;;;;5048657;28;20068;-43
2023/04/03 02:58:47;;;;;;;1.65;0.60;;;2.20;99.90;;;;;;5059334;28;21502;-43
2023/04/03 03:01:13;;;;;;;2.28;0.40;;;2.20;99.90;;;;;;5058441;28;20051;-45
2023/04/03 03:03:39;;;;;;;2.45;0.50;;;2.20;99.90;;;;;;5058866;28;20044;-41
2023/04/03 03:06:07;;;;;;;2.22;0.60;;;2.20;99.90;;;;;;5059497;28;20048;-42
2023/04/03 03:08:33;;;;;;;1.80;0.60;;;2.20;99.90;;;;;;5055213;28;22296;-42
2023/04/03 03:10:59;;;;;;;1.30;0.50;;;2.10;99.90;;;;;;5060551;28;20105;-45
2023/04/03 03:13:25;;;;;;;2.10;0.50;;;2.10;99.90;;;;;;5060165;28;20064;-54
2023/04/03 03:15:51;;;;;;;3.10;0.52;;;2.10;99.90;;;;;;5059251;28;20071;-41
2023/04/03 03:18:17;;;;;;;3.88;0.60;;;2.00;99.90;;;;;;5054994;28;20084;-43
2023/04/03 03:20:43;;;;;;;2.05;0.60;;;2.10;99.90;;;;;;5054806;28;20075;-43
2023/04/03 03:23:08;;;;;;;3.45;0.75;;;2.00;99.90;;;;;;5058479;28;20101;-46
2023/04/03 03:25:38;;;;;;;2.47;0.47;;;2.00;99.90;;;;;;5040434;28;20052;-41
2023/04/03 03:28:04;;;;;;;1.65;0.52;;;2.00;99.90;;;;;;5041163;28;20207;-41
2023/04/03 03:30:30;;;;;;;1.80;0.65;;;1.90;99.90;;;;;;5058426;28;20620;-42
2023/04/03 03:32:55;;;;;;;3.60;0.50;;;1.90;99.90;;;;;;5054029;28;20120;-37
2023/04/03 03:35:21;;;;;;;1.55;0.45;;;1.90;99.90;;;;;;5057629;28;20048;-37
2023/04/03 03:37:47;;;;;;;2.75;0.63;;;1.90;99.90;;;;;;5057449;28;20498;-37
2023/04/03 03:40:12;;;;;;;3.70;0.50;;;1.80;99.90;;;;;;5055476;28;20044;-37
2023/04/03 03:42:39;;;;;;;2.78;0.88;;;1.80;99.90;;;;;;5059278;28;20093;-36
2023/04/03 03:45:05;;;;;;;1.55;0.60;;;1.80;99.90;;;;;;5057595;28;20048;-37
2023/04/03 03:47:31;;;;;;;1.77;0.40;;;1.70;99.90;;;;;;5056153;28;20049;-39
2023/04/03 03:49:57;;;;;;;2.22;0.50;;;1.80;99.90;;;;;;5052727;28;20385;-39
2023/04/03 03:52:22;;;;;;;5.13;0.95;;;1.70;99.90;;;;;;5037558;28;20076;-39
2023/04/03 03:54:48;;;;;;;2.17;0.63;;;1.70;99.90;;;;;;5058875;28;20044;-38
2023/04/03 03:57:14;;;;;;;5.38;0.60;;;1.70;99.90;;;;;;5060984;28;20519;-39
2023/04/03 03:59:41;;;;;;;1.67;0.40;;;1.60;99.90;;;;;;5054285;28;20044;-38
2023/04/03 04:02:07;;;;;;;2.22;0.50;;;1.60;99.90;;;;;;5059149;28;20509;-39
2023/04/03 04:04:33;;;;;;;2.42;0.47;;;1.60;99.90;;;;;;5036829;28;20163;-39
2023/04/03 04:07:00;;;;;;;2.15;0.60;;;1.50;99.90;;;;;;5056301;28;20476;-41
2023/04/03 04:09:26;;;;;;;3.75;0.70;;;1.50;99.90;;;;;;5057537;28;20036;-41
2023/04/03 04:11:52;;;;;;;3.63;0.60;;;1.50;99.90;;;;;;5057801;28;20063;-41
2023/04/03 04:14:20;;;;;;;2.85;0.60;;;1.40;99.90;;;;;;5057379;28;20060;-41
2023/04/03 04:16:46;;;;;;;4.55;0.55;;;1.40;99.90;;;;;;5057288;28;20048;-41
2023/04/03 04:19:12;;;;;;;4.13;0.85;;;1.40;99.90;;;;;;5050398;28;20044;-41
2023/04/03 04:21:39;;;;;;;3.38;0.70;;;1.40;99.90;;;;;;5055933;28;20053;-41
2023/04/03 04:24:05;;;;;;;1.75;0.85;;;1.40;99.90;;;;;;5057814;28;20055;-42
2023/04/03 04:26:31;;;;;;;1.30;0.43;;;1.30;99.90;;;;;;5040464;28;20100;-41
2023/04/03 04:28:56;;;;;;;4.85;1.15;;;1.30;99.90;;;;;;5058427;28;20056;-46
2023/04/03 04:31:22;;;;;;;2.22;0.95;;;1.30;99.90;;;;;;5054305;28;20067;-41
2023/04/03 04:33:47;;;;;;;2.08;0.77;;;1.20;99.90;;;;;;5054172;28;20585;-43
2023/04/03 04:36:14;;;;;;;2.50;0.80;;;1.20;99.90;;;;;;5055767;28;20056;-43
2023/04/03 04:38:40;;;;;;;2.28;0.57;;;1.20;99.90;;;;;;5058600;28;20048;-43
2023/04/03 04:41:06;;;;;;;1.88;0.70;;;1.10;99.90;;;;;;5058230;28;20106;-43
2023/04/03 04:43:33;;;;;;;3.78;0.60;;;1.10;99.90;;;;;;5057270;28;20048;-46
2023/04/03 04:46:07;;;;;;;3.22;0.70;;;1.10;99.90;;;;;;5058432;28;20056;-42
2023/04/03 04:48:34;;;;;;;3.55;0.85;;;1.10;99.90;;;;;;5056318;28;20056;-44
2023/04/03 04:50:59;;;;;;;2.15;0.90;;;1.10;99.90;;;;;;5055782;28;20383;-42
2023/04/03 04:53:25;;;;;;;1.10;0.50;;;1.00;99.90;;;;;;5053142;28;20064;-41
2023/04/03 04:55:51;;;;;;;3.28;0.60;;;1.00;99.90;;;;;;5053122;28;20056;-42
2023/04/03 04:58:17;;;;;;;3.80;0.80;;;1.00;99.90;;;;;;5049744;28;20055;-40
2023/04/03 05:00:43;;;;;;;8.65;0.90;;;1.00;99.90;;;;;;5055265;28;20097;-41
2023/04/03 05:03:09;;;;;;;2.08;0.77;;;1.00;99.90;;;;;;5056094;28;20056;-41
2023/04/03 05:05:35;;;;;;;4.15;1.00;;;0.90;99.90;;;;;;5033327;28;20089;-43
2023/04/03 05:08:01;;;;;;;2.97;0.73;;;0.90;99.90;;;;;;5056851;28;20052;-45
2023/04/03 05:10:27;;;;;;;2.08;0.63;;;0.90;99.90;;;;;;5058482;28;20044;-48
2023/04/03 05:12:53;;;;;;;4.72;0.70;;;0.90;99.90;;;;;;5053139;28;20074;-44
2023/04/03 05:15:19;;;;;;;3.13;1.58;;;0.90;99.90;;;;;;5050534;28;20052;-43
2023/04/03 05:17:45;;;;;;;5.00;0.70;;;0.90;99.90;;;;;;5055072;28;20083;-44
2023/04/03 05:20:11;;;;;;;2.13;0.77;;;0.90;99.90;;;;;;5045773;28;20098;-43
2023/04/03 05:22:37;;;;;;;3.88;0.90;;;0.90;99.90;;;;;;5055778;28;20068;-45
2023/04/03 05:25:03;;;;;;;3.47;0.77;;;1.00;99.90;;;;;;5055705;28;20442;-44
2023/04/03 05:27:29;;;;;;;5.53;0.77;;;1.00;99.90;;;;;;5053406;28;20048;-43
2023/04/03 05:29:55;;;;;;;4.72;0.80;;;0.90;99.90;;;;;;5058992;28;20469;-42
2023/04/03 05:32:23;;;;;;;4.15;1.00;;;0.90;99.90;;;;;;5050760;28;20485;-45
2023/04/03 05:34:48;;;;;;;4.68;0.60;;;0.90;99.90;;;;;;5049794;28;20399;-41
2023/04/03 05:37:14;;;;;;;3.22;0.70;;;0.90;99.90;;;;;;5056487;28;20047;-42
2023/04/03 05:39:40;;;;;;;2.80;0.80;;;0.90;99.90;;;;;;5061971;28;20044;-41
2023/04/03 05:42:07;;;;;;;3.30;0.88;;;0.90;99.90;;;;;;5056409;28;21764;-42
2023/04/03 05:44:32;;;;;;;1.88;0.70;;;0.90;99.90;;;;;;5058172;28;20048;-41
2023/04/03 05:46:58;;;;;;;5.82;0.80;;;0.90;99.90;;;;;;5058905;28;20055;-40
2023/04/03 05:49:24;;;;;;;3.97;1.40;;;0.90;99.90;;;;;;5057296;28;20498;-44
2023/04/03 05:51:51;;;;;;;2.13;0.77;;;0.90;99.90;;;;;;5043909;28;20056;-40
2023/04/03 05:54:23;;;;;;;6.15;0.98;;;1.00;99.90;;;;;;5058421;28;20144;-41
2023/04/03 05:56:52;;;;;;;3.25;0.60;;;1.00;99.90;;;;;;5032727;28;20056;-40
2023/04/03 05:59:19;;;;;;;2.25;0.90;;;1.00;99.90;;;;;;5061479;28;20054;-40
2023/04/03 06:01:45;;;;;;;3.95;1.05;;;1.00;99.90;;;;;;5060398;28;20045;-40
2023/04/03 06:04:12;;;;;;;1.85;0.70;;;1.00;99.90;;;;;;5040308;28;20513;-40
2023/04/03 06:06:46;;;;;;;2.67;0.60;;;1.10;99.90;;;;;;5058249;28;20510;-42
2023/04/03 06:09:12;;;;;;;2.47;0.88;;;1.10;99.90;;;;;;5062532;28;20060;-42
2023/04/03 06:11:37;;;;;;;2.13;0.70;;;1.20;99.90;;;;;;5060809;28;20056;-41
2023/04/03 06:14:03;;;;;;;5.38;1.15;;;1.20;99.90;;;;;;5060138;28;20049;-41
2023/04/03 06:16:29;;;;;;;3.25;0.98;;;1.30;99.90;;;;;;5056986;28;20133;-41
2023/04/03 06:18:55;;;;;;;3.67;0.90;;;1.30;99.90;;;;;;5054913;28;20048;-46
2023/04/03 06:21:21;;;;;;;4.28;0.80;;;1.40;99.90;;;;;;5062661;28;20055;-40
2023/04/03 06:23:47;;;;;;;3.83;0.80;;;1.40;99.90;;;;;;5054920;28;20048;-36
2023/04/03 06:26:12;;;;;;;2.33;0.80;;;1.50;99.90;;;;;;5059778;28;20069;-36
2023/04/03 06:28:38;;;;;;;3.03;1.08;;;1.50;99.90;;;;;;5063264;28;20052;-36
2023/04/03 06:31:04;;;;;;;3.15;0.68;;;1.60;99.90;;;;;;5058844;28;20048;-43
2023/04/03 06:33:29;;;;;;;4.65;0.98;;;1.60;99.90;;;;;;5053911;28;20057;-36
2023/04/03 06:35:58;;;;;;;2.65;0.90;;;1.70;99.90;;;;;;5027145;28;20060;-36
2023/04/03 06:38:24;;;;;;;1.38;0.57;;;1.70;99.90;;;;;;5057423;28;20064;-38
2023/04/03 06:40:51;;;;;;;3.72;0.60;;;1.70;99.90;;;;;;5056673;28;20849;-36
2023/04/03 06:43:17;;;;;;;4.25;0.95;;;1.80;99.90;;;;;;5053311;28;20110;-41
2023/04/03 06:45:43;;;;;;;3.08;0.63;;;1.80;99.90;;;;;;5054918;28;20053;-44
2023/04/03 06:48:09;;;;;;;2.70;0.88;;;1.90;99.90;;;;;;5059026;28;20083;-45
2023/04/03 06:50:34;;;;;;;7.28;0.90;;;2.00;99.90;;;;;;5059508;28;20052;-44
2023/04/03 06:53:00;;;;;;;4.93;1.48;;;2.00;99.90;;;;;;5061550;28;20048;-45
2023/04/03 06:55:26;;;;;;;2.60;0.60;;;2.10;99.90;;;;;;5063265;28;20163;-44
2023/04/03 06:57:52;;;;;;;3.15;1.10;;;2.10;99.90;;;;;;5061491;28;20056;-46
2023/04/03 07:00:19;;;;;;;3.55;0.82;;;2.20;99.90;;;;;;5054860;28;20052;-44
2023/04/03 07:02:45;;;;;;;5.30;0.80;;;2.30;99.90;;;;;;5059214;28;20476;-44
2023/04/03 07:05:11;;;;;;;4.18;0.80;;;2.30;99.90;;;;;;5055253;28;20055;-47
2023/04/03 07:07:37;;;;;;;2.72;0.63;;;2.40;99.90;;;;;;5057645;28;20055;-44
2023/04/03 07:10:04;;;;;;;3.53;0.90;;;2.40;99.90;;;;;;5035489;28;20128;-47
2023/04/03 07:12:29;;;;;;;5.50;1.38;;;2.50;99.90;;;;;;5060726;28;20071;-45
2023/04/03 07:14:55;;;;;;;3.13;0.60;;;2.50;99.90;;;;;;5060953;28;20126;-44
2023/04/03 07:17:21;;;;;;;4.35;1.00;;;2.60;99.90;;;;;;5056464;28;20048;-45
2023/04/03 07:19:46;;;;;;;3.90;0.63;;;2.70;99.90;;;;;;5061404;28;20048;-43
2023/04/03 07:22:12;;;;;;;2.13;0.57;;;2.80;99.90;;;;;;5055746;28;20052;-42
2023/04/03 07:24:38;;;;;;;2.75;0.60;;;2.80;99.90;;;;;;5056742;28;20048;-53
2023/04/03 07:27:04;;;;;;;6.68;0.80;;;2.90;99.90;;;;;;5055120;28;20061;-44
2023/04/03 07:29:30;;;;;;;4.72;0.70;;;3.00;99.90;;;;;;5052660;28;20053;-42
2023/04/03 07:31:56;;;;;;;2.00;0.60;;;3.10;99.90;;;;;;5054338;28;20048;-47
2023/04/03 07:34:22;;;;;;;2.47;0.52;;;3.10;99.90;;;;;;5051796;28;20048;-44
2023/04/03 07:36:48;;;;;;;5.57;0.90;;;3.20;99.90;;;;;;5053396;28;20063;-42
2023/04/03 07:39:13;;;;;;;2.25;0.40;;;3.30;99.90;;;;;;5049293;28;20063;-42
2023/04/03 07:41:39;;;;;;;3.65;0.75;;;3.30;99.90;;;;;;5039245;28;20063;-42
2023/04/03 07:44:05;;;;;;;1.75;0.55;;;3.30;99.90;;;;;;5060373;28;20056;-44
2023/04/03 07:46:31;;;;;;;3.38;0.50;;;3.40;99.90;;;;;;5055574;28;20048;-41
2023/04/03 07:48:57;;;;;;;3.13;0.80;;;3.50;99.90;;;;;;5052475;28;20052;-43
2023/04/03 07:51:24;;;;;;;1.85;0.40;;;3.60;99.90;;;;;;5052663;28;20059;-40
2023/04/03 07:53:50;;;;;;;1.48;0.50;;;3.70;99.90;;;;;;5059131;28;20056;-40
2023/04/03 07:56:16;;;;;;;1.98;0.60;;;3.80;99.90;;;;;;5057621;28;20517;-40
2023/04/03 07:58:42;;;;;;;2.60;0.60;;;3.80;99.90;;;;;;5057950;28;20079;-48
2023/04/03 08:01:08;;;;;;;1.60;0.30;;;3.90;99.90;;;;;;5059786;28;20559;-39
2023/04/03 08:03:34;;;;;;;2.40;0.50;;;4.00;99.90;;;;;;5060047;28;20466;-41
2023/04/03 08:06:05;;;;;;;1.33;0.40;;;4.10;99.90;;;;;;5038001;28;20048;-41
2023/04/03 08:08:32;;;;;;;1.90;0.50;;;4.10;99.90;;;;;;5049670;28;20552;-46
2023/04/03 08:10:59;;;;;;;2.85;0.85;;;4.30;99.90;;;;;;5035619;28;20063;-42
2023/04/03 08:13:25;;;;;;;2.20;0.45;;;4.40;99.90;;;;;;5054045;28;20123;-42
2023/04/03 08:15:51;;;;;;;2.88;0.40;;;4.50;99.90;;;;;;5057127;28;20140;-40
2023/04/03 08:18:21;;;;;;;4.00;0.47;;;4.50;99.90;;;;;;5056452;28;20044;-41
2023/04/03 08:20:47;;;;;;;2.05;0.35;;;4.60;99.90;;;;;;5058919;28;20044;-41
2023/04/03 08:23:13;;;;;;;2.85;0.40;;;4.70;99.90;;;;;;5060012;28;20052;-45
2023/04/03 08:25:42;;;;;;;2.13;0.45;;;4.80;99.90;;;;;;5057608;28;20057;-40
2023/04/03 08:28:09;;;;;;;2.10;0.93;;;4.90;99.90;;;;;;5058272;28;20080;-40
2023/04/03 08:30:34;;;;;;;1.92;0.40;;;5.00;99.90;;;;;;5056055;28;20056;-50
2023/04/03 08:33:02;;;;;;;2.47;0.30;;;5.10;99.90;;;;;;5053766;28;20155;-42
2023/04/03 08:35:28;;;;;;;1.45;0.30;;;5.20;99.90;;;;;;5057172;28;20040;-43
2023/04/03 08:37:54;;;;;;;2.75;0.60;;;5.30;99.90;;;;;;5047836;28;20071;-41
2023/04/03 08:40:20;;;;;;;2.50;0.40;;;5.40;99.90;;;;;;5055473;28;20510;-41
2023/04/03 08:43:04;;;;;;;2.03;0.47;;;5.50;99.90;;;;;;5054648;28;20627;-43
2023/04/03 08:45:45;;;;;;;0.90;0.25;;;5.60;99.90;;;;;;5058355;28;20051;-43
2023/04/03 08:48:30;;;;;;;0.32;0.20;;;5.70;99.90;;;;;;5056247;28;20190;-39
2023/04/03 08:51:05;;;;;;;3.38;0.63;;;5.80;99.90;;;;;;5058508;28;20087;-41
2023/04/03 08:53:35;;;;;;;1.60;0.30;;;5.90;99.90;;;;;;5056295;28;20127;-43
2023/04/03 08:56:09;;;;;;;1.85;0.50;;;6.10;99.90;;;;;;5061087;28;20395;-43
2023/04/03 08:59:12;;;;;;;2.10;0.22;;;6.10;99.90;;;;;;5057863;28;20682;-41
2023/04/03 09:01:41;;;;;;;2.45;1.15;;;6.20;99.90;;;;;;5058348;28;20056;-41
2023/04/03 09:04:16;;;;;;;0.75;0.25;;;6.30;99.90;;;;;;5060000;28;20050;-42
2023/04/03 09:06:49;;;;;;;2.20;0.35;;;6.40;99.90;;;;;;5059490;28;20059;-41
2023/04/03 09:09:38;;;;;;;1.73;0.22;;;6.40;99.90;;;;;;5045175;28;20632;-41
2023/04/03 09:12:19;;;;;;;1.13;0.43;;;6.50;99.90;;;;;;5052839;28;20734;-41
2023/04/03 09:15:05;;;;;;;0.90;0.30;;;6.60;99.90;;;;;;5054093;28;20056;-41
2023/04/03 09:18:02;;;;;;;2.95;0.82;;;6.70;99.90;;;;;;5058727;28;20079;-41
2023/04/03 09:21:00;;;;;;;3.42;0.20;;;6.80;99.90;;;;;;5057825;28;20513;-42
2023/04/03 09:23:32;;;;;;;3.45;0.50;;;6.90;99.90;;;;;;5054615;28;20147;-41
2023/04/03 09:26:08;;;;;;;2.47;0.40;;;7.10;99.90;;;;;;5057895;28;20105;-43
2023/04/03 09:28:39;;;;;;;1.33;0.20;;;7.10;99.90;;;;;;5056483;28;20291;-42
2023/04/03 09:31:39;;;;;;;0.90;0.22;;;7.20;99.90;;;;;;5051059;28;20132;-45
2023/04/03 09:34:21;;;;;;;0.88;0.43;;;7.20;99.90;;;;;;5054695;28;20056;-42
2023/04/03 09:36:52;;;;;;;1.58;0.30;;;7.30;99.90;;;;;;5057498;28;20075;-42
2023/04/03 09:39:24;;;;;;;1.70;0.20;;;7.30;99.90;;;;;;5054109;28;20058;-41
2023/04/03 09:42:19;;;;;;;1.08;0.30;;;7.30;99.90;;;;;;5055505;28;20441;-40
2023/04/03 09:44:54;;;;;;;4.35;0.30;;;7.50;99.90;;;;;;5059502;28;20057;-41
2023/04/03 09:47:33;;;;;;;1.23;0.20;;;7.60;99.90;;;;;;5055503;28;20300;-41
2023/04/03 09:50:19;;;;;;;0.55;0.20;;;7.70;99.90;;;;;;5059643;28;20311;-43
2023/04/03 09:52:51;;;;;;;1.80;0.20;;;7.70;99.90;;;;;;5042077;28;20114;-41
2023/04/03 09:55:31;;;;;;;0.50;0.10;;;7.80;99.90;;;;;;5054033;28;20056;-41
2023/04/03 09:58:03;;;;;;;1.45;0.20;;;7.90;99.90;;;;;;5055450;28;20101;-41
2023/04/03 10:00:35;;;;;;;0.35;0.10;;;7.90;99.90;;;;;;5056282;28;20056;-40
2023/04/03 10:03:03;;;;;;;0.85;0.20;;;7.90;99.90;;;;;;5058344;28;20199;-40
2023/04/03 10:05:39;;;;;;;1.17;0.13;;;7.90;99.90;;;;;;5063937;28;20061;-41
2023/04/03 10:08:08;;;;;;;1.05;0.20;;;8.00;99.90;;;;;;5055640;28;21515;-41
2023/04/03 10:10:34;;;;;;;0.43;0.20;;;8.00;99.90;;;;;;5055010;28;20052;-41
2023/04/03 10:13:12;;;;;;;0.90;0.10;;;8.10;99.90;;;;;;5053361;28;20052;-38
2023/04/03 10:15:48;;;;;;;2.40;0.25;;;8.10;99.90;;;;;;5056566;28;20049;-41
2023/04/03 10:18:22;;;;;;;0.65;0.10;;;8.10;99.90;;;;;;5055240;28;20134;-41
2023/04/03 10:20:52;;;;;;;1.38;0.20;;;8.30;99.90;;;;;;5062306;28;20478;-40
2023/04/03 10:23:45;;;;;;;1.85;0.15;;;8.40;99.90;;;;;;5061831;28;20055;-41
2023/04/03 10:26:21;;;;;;;;;;;8.40;99.90;;;;;;5062824;28;20044;-42
2023/04/03 10:29:34;;;;;;;1.02;0.25;;;8.50;99.90;;;;;;5061095;28;19924;-42
2023/04/03 10:32:16;;;;;;;1.17;0.20;;;8.70;99.90;;;;;;5057405;28;20076;-41
2023/04/03 10:34:47;;;;;;;0.80;0.20;;;8.80;99.90;;;;;;5055102;28;20056;-42
2023/04/03 10:37:24;;;;;;;2.05;0.10;;;8.90;99.90;;;;;;5054931;28;20716;-43
2023/04/03 10:40:21;;;;;;;0.57;0.20;;;9.10;99.90;;;;;;5058624;28;20049;-41
2023/04/03 10:42:56;;;;;;;0.75;0.20;;;9.30;99.90;;;;;;5062477;28;20041;-45
2023/04/03 10:45:38;;;;;;;2.15;0.30;;;9.40;99.90;;;;;;5059163;28;20049;-44
2023/04/03 10:48:29;;;;;;;1.40;0.20;;;9.40;99.90;;;;;;5053678;28;20485;-42
2023/04/03 10:51:14;;;;;;;1.23;0.20;;;9.40;99.90;;;;;;5056044;28;20059;-41
2023/04/03 10:53:56;;;;;;;0.50;0.20;;;9.40;99.90;;;;;;5060695;28;20044;-43
2023/04/03 10:56:44;;;;;;;2.53;0.30;;;9.50;99.90;;;;;;5054231;28;20076;-38
2023/04/03 10:59:17;;;;;;;1.75;0.20;;;9.50;99.90;;;;;;5055202;28;20494;-42
2023/04/03 11:01:47;;;;;;;1.90;0.20;;;9.50;99.90;;;;;;5059615;28;20067;-40
2023/04/03 11:04:16;;;;;;;1.00;0.25;;;9.50;99.90;;;;;;5040985;28;20059;-40
2023/04/03 11:06:49;;;;;;;1.65;0.20;;;9.60;99.90;;;;;;5056304;28;20055;-40
2023/04/03 11:09:21;;;;;;;0.52;0.20;;;9.60;99.90;;;;;;5061736;28;20064;-46
2023/04/03 11:11:49;;;;;;;;;;;9.60;99.90;;;;;;5061721;28;20055;-41
2023/04/03 11:14:36;;;;;;;1.15;0.32;;;9.70;99.90;;;;;;5053131;28;19925;-46
2023/04/03 11:17:12;;;;;;;1.80;0.30;;;9.80;99.90;;;;;;5054711;28;20063;-40
2023/04/03 11:19:40;;;;;;;0.80;0.20;;;10.00;99.90;;;;;;5059721;28;20044;-43
2023/04/03 11:22:13;;;;;;;1.90;0.30;;;10.20;99.90;;;;;;5056981;28;20118;-49
2023/04/03 11:24:42;;;;;;;1.30;0.28;;;10.30;99.90;;;;;;5058410;28;20163;-44
2023/04/03 11:27:18;;;;;;;2.53;0.30;;;10.40;99.90;;;;;;5056699;28;20056;-44
2023/04/03 11:29:46;;;;;;;0.85;0.20;;;10.40;99.90;;;;;;5048990;28;20078;-42
2023/04/03 11:32:54;;;;;;;1.23;0.30;;;10.30;99.90;;;;;;5050352;28;20502;-42
2023/04/03 11:35:21;;;;;;;1.10;0.25;;;10.30;99.90;;;;;;4955539;28;20154;-45
2023/04/03 11:37:52;;;;;;;6.07;0.32;;;10.40;99.90;;;;;;5036702;28;20139;-44
2023/04/03 11:40:32;;;;;;;1.42;0.30;;;10.50;99.90;;;;;;5052646;28;20065;-57
2023/04/03 11:43:19;;;;;;;1.83;0.47;;;10.50;99.90;;;;;;5055334;28;20266;-43
2023/04/03 11:45:59;;;;;;;1.95;0.10;;;10.50;99.90;;;;;;5056797;28;20133;-41
2023/04/03 11:48:33;;;;;;;1.33;0.30;;;10.60;99.90;;;;;;5054423;28;20174;-47
2023/04/03 11:51:21;;;;;;;1.55;0.22;;;10.70;99.90;;;;;;5059683;28;20105;-45
2023/04/03 11:53:48;;;;;;;1.25;0.20;;;10.70;99.90;;;;;;5055565;28;20498;-42
2023/04/03 11:56:26;;;;;;;4.85;0.32;;;10.70;99.90;;;;;;5056202;28;20056;-43
2023/04/03 11:59:11;;;;;;;1.17;0.20;;;10.70;99.90;;;;;;5053147;28;20068;-44
2023/04/03 12:01:53;;;;;;;1.25;0.25;;;10.80;99.90;;;;;;5053152;28;20083;-46
2023/04/03 12:04:21;;;;;;;1.30;0.30;;;10.80;99.90;;;;;;5052095;28;20532;-43
2023/04/03 12:06:47;;;;;;;1.55;0.20;;;10.90;99.90;;;;;;5062305;28;20138;-44
2023/04/03 12:09:55;;;;;;;2.35;0.30;;;10.90;99.90;;;;;;5061858;28;20475;-45
2023/04/03 12:12:30;;;;;;;1.42;0.25;;;10.90;99.90;;;;;;5054618;28;20052;-43
2023/04/03 12:15:47;;;;;;;1.15;0.20;;;11.00;99.90;;;;;;5036666;28;20118;-45
2023/04/03 12:18:49;;;;;;;0.88;0.25;;;11.10;99.90;;;;;;4993651;28;20144;-46
2023/04/03 12:21:19;;;;;;;1.93;0.20;;;11.30;99.90;;;;;;5056220;28;20797;-43
2023/04/03 12:24:09;;;;;;;0.82;0.20;;;11.40;99.90;;;;;;5064372;28;20290;-45
2023/04/03 12:26:56;;;;;;;1.45;0.30;;;11.50;99.90;;;;;;5052367;28;20076;-41
2023/04/03 12:29:34;;;;;;;0.98;0.38;;;11.60;99.90;;;;;;5062164;28;20068;-44
2023/04/03 12:32:45;;;;;;;1.92;0.25;;;11.60;99.90;;;;;;5058999;28;20060;-44
2023/04/03 12:35:14;;;;;;;1.17;0.30;;;11.90;99.90;;;;;;4997930;28;20137;-46
2023/04/03 12:38:08;;;;;;;0.68;0.30;;;12.00;99.90;;;;;;4996030;28;20104;-42
2023/04/03 12:40:48;;;;;;;2.42;0.22;;;12.10;99.90;;;;;;5035654;28;20064;-43
2023/04/03 12:43:17;;;;;;;1.63;0.20;;;12.20;99.90;;;;;;5059284;28;20044;-44
2023/04/03 12:45:52;;;;;;;2.35;0.50;;;12.40;99.90;;;;;;5060972;28;20538;-44
2023/04/03 12:48:24;;;;;;;1.83;0.40;;;12.60;99.90;;;;;;5053641;28;20048;-42
2023/04/03 12:50:50;;;;;;;0.88;0.20;;;12.70;99.90;;;;;;5033956;28;20088;-43
2023/04/03 12:53:22;;;;;;;1.65;0.35;;;12.90;99.90;;;;;;5051267;28;20090;-41
2023/04/03 12:55:48;;;;;;;1.00;0.20;;;;;;;;;;5058698;28;20548;-42
2023/04/03 12:58:16;;;;;;;1.08;0.30;;;;;;;;;;5053507;28;20055;-43
2023/04/03 13:00:43;;;;;;;1.63;0.15;;;;;;;;;;5058417;28;20078;-46
2023/04/03 13:03:21;;;;;;;2.20;0.40;;;;;;;;;;5059390;28;20056;-45
2023/04/03 13:05:47;;;;;;;1.67;0.57;;;15.00;99.90;;;;;;5055934;28;20071;-42
2023/04/03 13:08:15;;;;;;;1.23;0.30;;;15.30;99.90;;;;;;5049552;28;20053;-42
2023/04/03 13:10:49;;;;;;;6.32;0.35;;;15.60;99.90;;;;;;5053083;28;20048;-43
2023/04/03 13:13:15;;;;;;;1.30;0.20;;;15.80;99.90;;;;;;5061676;28;20114;-43
2023/04/03 13:15:48;;;;;;;0.80;0.20;;;16.10;99.90;;;;;;5057153;28;20063;-44